createdAt,value
2022-09-26T00:01:55.546Z,15.10
2022-09-26T00:04:31.780Z,14.30
2022-09-26T00:07:01.341Z,14.70
2022-09-26T00:09:30.052Z,15.20
2022-09-26T00:11:59.071Z,15.50
2022-09-26T00:14:29.156Z,14.80
2022-09-26T00:16:57.676Z,14.40
2022-09-26T00:19:26.187Z,14.50
2022-09-26T00:21:54.752Z,15.60
2022-09-26T00:24:23.267Z,14.20
2022-09-26T00:26:51.860Z,14.50
2022-09-26T00:29:20.320Z,14.90
2022-09-26T00:31:48.962Z,15.50
2022-09-26T00:34:19.615Z,15.40
2022-09-26T00:36:50.065Z,14.80
2022-09-26T00:39:18.672Z,15.30
2022-09-26T00:41:47.173Z,15.00
2022-09-26T00:44:36.888Z,14.90
2022-09-26T00:47:17.077Z,15.60
2022-09-26T00:49:47.358Z,19.60
2022-09-26T00:52:22.475Z,20.60
2022-09-26T00:54:55.786Z,17.20
2022-09-26T00:57:28.478Z,15.60
2022-09-26T01:00:01.231Z,14.80
2022-09-26T01:02:30.042Z,15.10
2022-09-26T01:04:59.905Z,12.00
2022-09-26T01:07:29.476Z,13.10
2022-09-26T01:09:58.870Z,13.90
2022-09-26T01:12:27.880Z,13.60
2022-09-26T01:14:57.925Z,12.50
2022-09-26T01:17:27.311Z,13.70
2022-09-26T01:20:17.020Z,11.50
2022-09-26T01:23:07.844Z,12.30
2022-09-26T01:26:05.731Z,12.50
2022-09-26T01:28:53.803Z,14.20
2022-09-26T01:31:28.503Z,15.50
2022-09-26T01:34:04.392Z,15.60
2022-09-26T01:36:48.144Z,15.70
2022-09-26T01:39:30.741Z,15.20
2022-09-26T01:42:14.246Z,14.40
2022-09-26T01:44:48.797Z,15.60
2022-09-26T01:47:22.792Z,16.30
2022-09-26T01:49:58.079Z,15.80
2022-09-26T01:52:32.887Z,16.40
2022-09-26T01:55:07.931Z,15.80
2022-09-26T01:57:40.902Z,14.90
2022-09-26T02:00:12.210Z,15.40
2022-09-26T02:02:45.481Z,14.70
2022-09-26T02:05:20.340Z,13.70
2022-09-26T02:07:55.177Z,13.60
2022-09-26T02:10:28.791Z,14.70
2022-09-26T02:13:03.146Z,13.50
2022-09-26T02:15:36.289Z,14.40
2022-09-26T02:18:12.412Z,14.70
2022-09-26T02:20:47.850Z,15.20
2022-09-26T02:23:16.563Z,16.10
2022-09-26T02:25:45.075Z,14.90
2022-09-26T02:28:14.000Z,15.00
2022-09-26T02:30:46.402Z,15.50
2022-09-26T02:33:15.914Z,17.40
2022-09-26T02:35:56.968Z,15.90
2022-09-26T02:38:30.977Z,15.10
2022-09-26T02:41:21.968Z,16.00
2022-09-26T02:44:05.365Z,16.80
2022-09-26T02:46:53.445Z,16.00
2022-09-26T02:49:44.721Z,15.30
2022-09-26T02:52:21.190Z,14.90
2022-09-26T02:55:03.930Z,14.20
2022-09-26T02:57:44.299Z,15.40
2022-09-26T03:00:18.080Z,15.90
2022-09-26T03:02:55.161Z,15.10
2022-09-26T03:05:27.339Z,14.70
2022-09-26T03:08:00.781Z,15.20
2022-09-26T03:10:32.071Z,14.50
2022-09-26T03:13:06.412Z,14.80
2022-09-26T03:15:37.204Z,15.40
2022-09-26T03:18:09.884Z,13.70
2022-09-26T03:20:38.487Z,15.40
2022-09-26T03:23:07.188Z,15.70
2022-09-26T03:25:36.244Z,16.80
2022-09-26T03:28:07.106Z,16.90
2022-09-26T03:30:35.648Z,17.60
2022-09-26T03:33:23.307Z,12.20
2022-09-26T03:35:52.331Z,11.60
2022-09-26T03:38:22.109Z,13.70
2022-09-26T03:40:58.306Z,14.20
2022-09-26T03:43:45.507Z,13.00
2022-09-26T03:46:15.134Z,13.60
2022-09-26T03:48:43.732Z,14.20
2022-09-26T03:51:13.739Z,15.80
2022-09-26T03:53:44.860Z,14.60
2022-09-26T03:56:17.686Z,12.70
2022-09-26T03:58:48.398Z,12.50
2022-09-26T04:01:19.984Z,11.10
2022-09-26T04:03:51.097Z,11.10
2022-09-26T04:06:21.739Z,12.00
2022-09-26T04:08:52.242Z,11.10
2022-09-26T04:11:24.090Z,10.40
2022-09-26T04:16:24.543Z,11.20
2022-09-26T04:19:01.366Z,11.70
2022-09-26T04:21:30.513Z,11.80
2022-09-26T04:24:00.639Z,10.50
2022-09-26T04:26:29.238Z,10.40
2022-09-26T04:28:58.445Z,11.50
2022-09-26T04:31:42.001Z,9.80
2022-09-26T04:34:14.301Z,11.40
2022-09-26T04:36:43.116Z,11.50
2022-09-26T04:39:12.832Z,11.50
2022-09-26T04:41:41.758Z,12.80
2022-09-26T04:44:12.124Z,13.60
2022-09-26T04:46:40.740Z,12.40
2022-09-26T04:49:10.548Z,12.80
2022-09-26T04:51:39.123Z,14.60
2022-09-26T04:54:07.974Z,13.70
2022-09-26T04:56:40.046Z,15.60
2022-09-26T04:59:09.283Z,11.40
2022-09-26T05:01:45.751Z,15.80
2022-09-26T05:04:26.652Z,12.50
2022-09-26T05:06:58.589Z,12.20
2022-09-26T05:09:34.282Z,12.50
2022-09-26T05:12:17.581Z,11.90
2022-09-26T05:14:47.423Z,11.50
2022-09-26T05:17:16.003Z,12.30
2022-09-26T05:19:45.631Z,11.10
2022-09-26T05:22:40.200Z,12.00
2022-09-26T05:25:28.505Z,13.10
2022-09-26T05:27:57.037Z,11.50
2022-09-26T05:30:30.580Z,11.80
2022-09-26T05:32:59.194Z,12.80
2022-09-26T05:35:27.713Z,15.60
2022-09-26T05:38:00.070Z,13.70
2022-09-26T05:41:02.006Z,15.30
2022-09-26T05:43:32.989Z,14.40
2022-09-26T05:46:03.904Z,13.90
2022-09-26T05:48:37.570Z,14.90
2022-09-26T05:51:11.856Z,15.70
2022-09-26T05:53:43.660Z,16.20
2022-09-26T05:59:05.205Z,15.40
2022-09-26T06:01:36.590Z,14.80
2022-09-26T06:04:10.138Z,16.00
2022-09-26T06:06:48.134Z,14.50
2022-09-26T06:09:18.380Z,17.70
2022-09-26T06:12:05.532Z,15.10
2022-09-26T06:14:34.138Z,15.30
2022-09-26T06:17:02.656Z,17.80
2022-09-26T06:19:31.716Z,16.90
2022-09-26T06:22:00.278Z,18.00
2022-09-26T06:24:30.735Z,19.50
2022-09-26T06:27:01.624Z,21.10
2022-09-26T06:29:32.261Z,22.20
2022-09-26T06:32:01.431Z,22.30
2022-09-26T06:34:51.151Z,20.90
2022-09-26T06:37:44.423Z,20.60
2022-09-26T06:40:13.447Z,19.30
2022-09-26T06:42:46.143Z,20.10
2022-09-26T06:45:35.639Z,20.10
2022-09-26T06:48:18.952Z,18.70
2022-09-26T06:51:14.662Z,20.20
2022-09-26T06:53:45.336Z,19.20
2022-09-26T06:56:17.608Z,19.70
2022-09-26T06:58:46.266Z,21.10
2022-09-26T07:01:17.943Z,21.00
2022-09-26T07:04:03.969Z,21.50
2022-09-26T07:06:51.257Z,20.60
2022-09-26T07:09:20.171Z,20.90
2022-09-26T07:12:15.575Z,19.90
2022-09-26T07:14:45.753Z,20.20
2022-09-26T07:17:21.408Z,18.40
2022-09-26T07:20:10.537Z,19.20
2022-09-26T07:23:01.383Z,18.30
2022-09-26T07:25:31.024Z,18.30
2022-09-26T07:28:00.915Z,17.70
2022-09-26T07:30:38.408Z,17.00
2022-09-26T07:33:36.424Z,13.80
2022-09-26T07:36:10.203Z,12.70
2022-09-26T07:38:39.042Z,9.80
2022-09-26T07:41:10.201Z,8.60
2022-09-26T07:46:45.111Z,6.70
2022-09-26T07:49:31.864Z,7.80
2022-09-26T07:52:32.962Z,7.30
2022-09-26T07:55:21.753Z,8.60
2022-09-26T07:58:06.583Z,7.90
2022-09-26T08:00:46.231Z,6.10
2022-09-26T08:03:28.028Z,5.90
2022-09-26T08:06:00.439Z,5.50
2022-09-26T08:08:30.249Z,5.50
2022-09-26T08:13:46.059Z,5.60
2022-09-26T08:16:41.246Z,5.50
2022-09-26T08:19:12.967Z,5.80
2022-09-26T08:24:09.724Z,6.20
2022-09-26T08:26:56.430Z,6.30
2022-09-26T08:29:31.482Z,6.70
2022-09-26T08:34:34.949Z,6.00
2022-09-26T08:37:27.611Z,6.30
2022-09-26T08:43:36.845Z,6.80
2022-09-26T08:46:46.151Z,7.20
2022-09-26T08:50:03.192Z,8.30
2022-09-26T08:52:37.165Z,7.60
2022-09-26T08:55:13.309Z,7.60
2022-09-26T08:57:44.995Z,7.10
2022-09-26T09:03:07.829Z,7.10
2022-09-26T09:05:40.493Z,7.40
2022-09-26T09:08:14.622Z,7.90
2022-09-26T09:11:03.110Z,7.90
2022-09-26T09:13:46.584Z,7.00
2022-09-26T09:16:44.894Z,7.10
2022-09-26T09:19:41.342Z,7.00
2022-09-26T09:22:38.248Z,7.60
2022-09-26T09:25:16.463Z,7.10
2022-09-26T09:28:08.433Z,6.80
2022-09-26T09:30:43.649Z,6.80
2022-09-26T09:33:16.991Z,7.10
2022-09-26T09:36:08.708Z,6.40
2022-09-26T09:38:47.977Z,6.50
2022-09-26T09:41:35.225Z,6.90
2022-09-26T09:44:14.955Z,7.00
2022-09-26T09:46:43.904Z,7.20
2022-09-26T09:49:19.716Z,7.20
2022-09-26T09:52:10.375Z,7.10
2022-09-26T09:54:55.268Z,7.20
2022-09-26T09:57:54.342Z,6.90
2022-09-26T10:00:24.596Z,6.60
2022-09-26T10:03:04.662Z,6.00
2022-09-26T10:05:41.043Z,5.70
2022-09-26T10:08:13.798Z,5.70
2022-09-26T10:11:12.211Z,6.50
2022-09-26T10:14:02.690Z,6.20
2022-09-26T10:17:19.871Z,5.70
2022-09-26T10:20:27.283Z,6.30
2022-09-26T10:22:56.213Z,6.00
2022-09-26T10:25:26.753Z,6.40
2022-09-26T10:27:58.642Z,6.60
2022-09-26T10:30:33.518Z,6.20
2022-09-26T10:33:05.601Z,7.00
2022-09-26T10:35:46.808Z,6.20
2022-09-26T10:38:21.547Z,5.30
2022-09-26T10:40:59.004Z,5.80
2022-09-26T10:43:30.240Z,5.30
2022-09-26T10:46:09.104Z,5.40
2022-09-26T10:49:18.337Z,5.50
2022-09-26T10:52:17.585Z,6.00
2022-09-26T10:54:54.701Z,5.50
2022-09-26T10:57:29.091Z,5.50
2022-09-26T11:00:00.454Z,6.10
2022-09-26T11:02:29.324Z,6.30
2022-09-26T11:05:18.388Z,5.50
2022-09-26T11:08:13.511Z,5.60
2022-09-26T11:10:55.310Z,5.20
2022-09-26T11:13:45.845Z,5.40
2022-09-26T11:16:18.553Z,5.00
2022-09-26T11:18:56.532Z,5.00
2022-09-26T11:21:33.046Z,4.80
2022-09-26T11:24:10.949Z,4.70
2022-09-26T11:26:49.003Z,5.10
2022-09-26T11:29:24.498Z,5.10
2022-09-26T11:32:23.598Z,5.50
2022-09-26T11:38:04.874Z,4.50
2022-09-26T11:41:06.828Z,5.00
2022-09-26T11:43:51.211Z,4.90
2022-09-26T11:46:49.681Z,4.90
2022-09-26T11:50:02.219Z,4.90
2022-09-26T11:52:58.867Z,4.90
2022-09-26T11:55:36.589Z,5.10
2022-09-26T11:58:16.650Z,4.60
2022-09-26T12:00:56.332Z,4.60
2022-09-26T12:03:45.010Z,4.90
2022-09-26T12:06:25.223Z,4.70
2022-09-26T12:09:11.577Z,4.60
2022-09-26T12:11:52.542Z,4.80
2022-09-26T12:14:38.354Z,4.90
2022-09-26T12:17:14.384Z,4.80
2022-09-26T12:19:51.719Z,4.60
2022-09-26T12:22:30.367Z,4.70
2022-09-26T12:25:16.638Z,4.70
2022-09-26T12:27:58.695Z,5.20
2022-09-26T12:30:35.170Z,5.10
2022-09-26T12:33:20.418Z,5.30
2022-09-26T12:35:58.309Z,5.00
2022-09-26T12:38:41.915Z,5.70
2022-09-26T12:41:50.088Z,6.00
2022-09-26T12:44:34.143Z,6.30
2022-09-26T12:47:15.014Z,6.70
2022-09-26T12:50:01.008Z,7.30
2022-09-26T12:52:51.088Z,7.60
2022-09-26T12:55:31.597Z,8.90
2022-09-26T12:58:11.247Z,8.30
2022-09-26T13:00:48.708Z,8.40
2022-09-26T13:03:35.842Z,7.90
2022-09-26T13:06:33.567Z,7.40
2022-09-26T13:09:15.291Z,6.70
2022-09-26T13:11:54.910Z,7.80
2022-09-26T13:14:48.147Z,8.10
2022-09-26T13:17:21.187Z,7.70
2022-09-26T13:19:55.437Z,8.90
2022-09-26T13:22:36.115Z,8.50
2022-09-26T13:25:18.270Z,8.40
2022-09-26T13:27:55.568Z,8.60
2022-09-26T13:30:28.169Z,9.40
2022-09-26T13:33:02.808Z,9.70
2022-09-26T13:35:35.237Z,8.10
2022-09-26T13:38:34.034Z,7.80
2022-09-26T13:41:14.972Z,8.00
2022-09-26T13:43:52.926Z,8.30
2022-09-26T13:46:30.611Z,7.80
2022-09-26T13:49:12.996Z,7.10
2022-09-26T13:51:51.080Z,10.20
2022-09-26T13:54:27.680Z,32.60
2022-09-26T13:57:00.093Z,46.10
2022-09-26T13:59:51.719Z,28.00
2022-09-26T14:02:24.037Z,27.30
2022-09-26T14:05:17.064Z,15.20
2022-09-26T14:08:12.593Z,16.60
2022-09-26T14:10:52.599Z,15.90
2022-09-26T14:13:33.936Z,31.30
2022-09-26T14:16:04.777Z,72.10
2022-09-26T14:18:51.582Z,31.70
2022-09-26T14:21:35.798Z,19.90
2022-09-26T14:24:33.110Z,12.80
2022-09-26T14:27:24.612Z,13.50
2022-09-26T14:29:58.390Z,11.70
2022-09-26T14:32:39.906Z,11.50
2022-09-26T14:35:20.800Z,12.50
2022-09-26T14:37:55.016Z,12.30
2022-09-26T14:40:31.487Z,11.60
2022-09-26T14:43:12.328Z,10.40
2022-09-26T14:45:51.529Z,10.50
2022-09-26T14:48:31.942Z,9.60
2022-09-26T14:51:04.234Z,10.30
2022-09-26T14:53:42.837Z,10.50
2022-09-26T14:56:15.731Z,10.40
2022-09-26T14:58:50.309Z,10.20
2022-09-26T15:01:28.132Z,10.10
2022-09-26T15:04:04.496Z,11.00
2022-09-26T15:06:41.999Z,12.20
2022-09-26T15:09:18.523Z,18.00
2022-09-26T15:11:51.982Z,32.90
2022-09-26T15:14:36.040Z,22.40
2022-09-26T15:17:06.574Z,32.00
2022-09-26T15:19:42.153Z,22.30
2022-09-26T15:22:16.270Z,15.50
2022-09-26T15:25:22.906Z,13.00
2022-09-26T15:27:53.740Z,13.70
2022-09-26T15:30:26.383Z,16.00
2022-09-26T15:32:57.840Z,13.50
2022-09-26T15:35:27.355Z,30.40
2022-09-26T15:38:00.068Z,11.70
2022-09-26T15:40:30.860Z,10.10
2022-09-26T15:43:09.051Z,10.60
2022-09-26T15:45:57.821Z,10.30
2022-09-26T15:48:29.079Z,9.40
2022-09-26T15:51:03.449Z,8.80
2022-09-26T15:53:36.790Z,9.20
2022-09-26T15:56:09.182Z,9.80
2022-09-26T15:58:43.740Z,10.40
2022-09-26T16:01:16.865Z,10.40
2022-09-26T16:03:56.592Z,10.00
2022-09-26T16:06:29.002Z,10.80
2022-09-26T16:09:06.760Z,11.30
2022-09-26T16:11:46.960Z,13.20
2022-09-26T16:14:26.059Z,12.10
2022-09-26T16:17:02.357Z,12.70
2022-09-26T16:19:34.598Z,11.70
2022-09-26T16:22:44.720Z,12.30
2022-09-26T16:25:33.821Z,12.50
2022-09-26T16:28:39.300Z,12.50
2022-09-26T16:31:22.581Z,11.60
2022-09-26T16:33:53.558Z,12.50
2022-09-26T16:36:23.940Z,15.40
2022-09-26T16:38:57.667Z,22.50
2022-09-26T16:41:59.960Z,23.30
2022-09-26T16:47:01.268Z,19.40
2022-09-26T16:49:41.579Z,18.70
2022-09-26T16:52:20.149Z,19.00
2022-09-26T16:54:50.849Z,14.60
2022-09-26T16:57:22.319Z,15.30
2022-09-26T16:59:52.333Z,15.20
2022-09-26T17:02:21.933Z,17.70
2022-09-26T17:04:53.531Z,16.50
2022-09-26T17:07:23.410Z,12.50
2022-09-26T17:09:51.972Z,14.80
2022-09-26T17:12:22.109Z,17.00
2022-09-26T17:14:52.588Z,16.20
2022-09-26T17:17:25.185Z,19.10
2022-09-26T17:19:59.172Z,16.60
2022-09-26T17:22:28.920Z,14.10
2022-09-26T17:24:58.740Z,11.10
2022-09-26T17:27:33.572Z,13.90
2022-09-26T17:30:04.266Z,8.80
2022-09-26T17:32:36.184Z,9.40
2022-09-26T17:35:12.820Z,11.70
2022-09-26T17:37:41.453Z,11.40
2022-09-26T17:40:16.513Z,9.80
2022-09-26T17:42:45.316Z,7.60
2022-09-26T17:45:14.192Z,8.80
2022-09-26T17:47:42.972Z,10.70
2022-09-26T17:50:19.300Z,11.10
2022-09-26T17:52:47.899Z,10.80
2022-09-26T17:55:18.205Z,12.10
2022-09-26T17:57:46.846Z,9.90
2022-09-26T18:00:18.838Z,10.10
2022-09-26T18:02:52.479Z,11.90
2022-09-26T18:05:25.123Z,15.50
2022-09-26T18:07:57.296Z,14.10
2022-09-26T18:13:03.292Z,13.50
2022-09-26T18:15:31.929Z,12.50
2022-09-26T18:18:01.708Z,10.30
2022-09-26T18:20:36.495Z,26.40
2022-09-26T18:23:06.784Z,25.40
2022-09-26T18:25:51.108Z,21.30
2022-09-26T18:28:22.779Z,18.10
2022-09-26T18:30:58.422Z,26.70
2022-09-26T18:33:28.337Z,25.40
2022-09-26T18:35:58.219Z,21.20
2022-09-26T18:38:30.359Z,31.80
2022-09-26T18:41:00.003Z,24.70
2022-09-26T18:43:31.192Z,47.40
2022-09-26T18:46:00.034Z,38.10
2022-09-26T18:48:33.257Z,36.50
2022-09-26T18:51:02.728Z,41.40
2022-09-26T18:53:36.460Z,32.00
2022-09-26T18:56:23.801Z,30.90
2022-09-26T18:58:53.466Z,32.20
2022-09-26T19:01:27.535Z,40.20
2022-09-26T19:04:00.410Z,50.10
2022-09-26T19:06:54.175Z,57.00
2022-09-26T19:09:24.393Z,42.30
2022-09-26T19:11:53.142Z,29.30
2022-09-26T19:14:24.629Z,21.30
2022-09-26T19:16:54.421Z,18.70
2022-09-26T19:19:23.624Z,16.80
2022-09-26T19:21:55.211Z,12.60
2022-09-26T19:24:32.144Z,12.70
2022-09-26T19:27:06.213Z,11.20
2022-09-26T19:29:39.977Z,11.70
2022-09-26T19:32:18.788Z,13.60
2022-09-26T19:34:51.117Z,13.20
2022-09-26T19:37:19.919Z,13.30
2022-09-26T19:39:48.691Z,13.30
2022-09-26T19:42:17.806Z,13.80
2022-09-26T19:44:54.084Z,12.10
2022-09-26T19:47:35.297Z,11.70
2022-09-26T19:50:18.079Z,13.00
2022-09-26T19:52:50.140Z,12.50
2022-09-26T19:55:26.818Z,14.90
2022-09-26T19:58:17.336Z,14.70
2022-09-26T20:00:49.154Z,16.10
2022-09-26T20:03:19.653Z,16.40
2022-09-26T20:05:52.324Z,15.70
2022-09-26T20:08:27.919Z,15.70
2022-09-26T20:10:58.592Z,15.10
2022-09-26T20:13:47.583Z,14.50
2022-09-26T20:16:16.404Z,15.60
2022-09-26T20:18:46.006Z,18.60
2022-09-26T20:21:17.205Z,19.50
2022-09-26T20:23:46.746Z,22.30
2022-09-26T20:26:16.632Z,23.40
2022-09-26T20:28:45.361Z,25.80
2022-09-26T20:31:22.051Z,24.50
2022-09-26T20:33:51.564Z,22.90
2022-09-26T20:36:24.690Z,23.10
2022-09-26T20:38:55.247Z,23.50
2022-09-26T20:41:28.829Z,26.50
2022-09-26T20:44:01.438Z,25.50
2022-09-26T20:46:33.374Z,21.60
2022-09-26T20:49:24.610Z,24.20
2022-09-26T20:51:53.262Z,24.60
2022-09-26T20:54:29.345Z,25.90
2022-09-26T20:56:58.758Z,24.30
2022-09-26T20:59:28.647Z,22.80
2022-09-26T21:01:59.082Z,22.00
2022-09-26T21:04:31.468Z,22.40
2022-09-26T21:07:00.071Z,21.60
2022-09-26T21:09:28.700Z,23.60
2022-09-26T21:11:57.337Z,19.30
2022-09-26T21:14:25.863Z,19.80
2022-09-26T21:16:55.111Z,18.70
2022-09-26T21:19:27.149Z,16.50
2022-09-26T21:22:02.899Z,17.00
2022-09-26T21:24:44.741Z,16.50
2022-09-26T21:27:13.776Z,15.50
2022-09-26T21:29:42.906Z,16.50
2022-09-26T21:32:16.725Z,17.20
2022-09-26T21:34:55.766Z,17.00
2022-09-26T21:37:30.675Z,16.00
2022-09-26T21:39:59.456Z,16.20
2022-09-26T21:42:28.067Z,15.90
2022-09-26T21:45:02.013Z,15.50
2022-09-26T21:47:30.925Z,14.80
2022-09-26T21:49:59.676Z,14.20
2022-09-26T21:52:35.118Z,15.30
2022-09-26T21:55:06.022Z,16.50
2022-09-26T21:57:38.012Z,16.00
2022-09-26T22:00:09.472Z,15.30
2022-09-26T22:02:42.153Z,17.00
2022-09-26T22:05:12.149Z,16.00
2022-09-26T22:07:40.655Z,15.50
2022-09-26T22:10:09.829Z,13.00
2022-09-26T22:12:38.331Z,15.10
2022-09-26T22:15:09.206Z,13.90
2022-09-26T22:17:37.820Z,16.10
2022-09-26T22:20:07.808Z,15.60
2022-09-26T22:22:37.105Z,15.70
2022-09-26T22:25:07.221Z,15.40
2022-09-26T22:27:35.971Z,15.00
2022-09-26T22:30:05.960Z,16.20
2022-09-26T22:32:34.757Z,16.20
2022-09-26T22:35:04.094Z,17.20
2022-09-26T22:37:33.172Z,14.90
2022-09-26T22:40:02.724Z,16.10
2022-09-26T22:42:31.732Z,18.20
2022-09-26T22:45:00.197Z,17.60
2022-09-26T22:47:28.877Z,17.20
2022-09-26T22:49:57.756Z,16.50
2022-09-26T22:52:26.358Z,14.80
2022-09-26T22:54:55.539Z,15.20
2022-09-26T22:57:24.139Z,14.50
2022-09-26T22:59:52.763Z,15.40
2022-09-26T23:02:21.323Z,13.90
2022-09-26T23:04:50.229Z,13.20
2022-09-26T23:07:19.934Z,12.30
2022-09-26T23:09:48.695Z,11.80
2022-09-26T23:12:18.351Z,14.10
2022-09-26T23:14:46.991Z,12.30
2022-09-26T23:17:16.150Z,11.80
2022-09-26T23:19:45.161Z,11.80
2022-09-26T23:22:14.711Z,14.10
2022-09-26T23:24:43.324Z,12.20
2022-09-26T23:27:11.926Z,11.90
2022-09-26T23:29:41.125Z,12.30
2022-09-26T23:32:09.693Z,11.60
2022-09-26T23:34:38.261Z,11.10
2022-09-26T23:37:06.834Z,10.50
2022-09-26T23:39:35.433Z,13.40
2022-09-26T23:42:04.702Z,13.50
2022-09-26T23:44:34.312Z,14.40
2022-09-26T23:47:03.643Z,15.20
2022-09-26T23:49:32.241Z,15.50
2022-09-26T23:52:01.619Z,15.40
2022-09-26T23:54:30.498Z,16.70
2022-09-26T23:56:59.907Z,17.30
2022-09-26T23:59:28.585Z,17.80
